createdAt,value
2022-11-24T05:30:37.727Z,98.69
2022-11-24T05:31:37.773Z,98.69
2022-11-24T05:32:37.698Z,98.94
2022-11-24T05:33:37.661Z,98.79
2022-11-24T05:34:37.658Z,98.28
2022-11-24T05:35:37.639Z,98.07
2022-11-24T05:36:37.676Z,98.28
2022-11-24T05:37:37.636Z,97.97
2022-11-24T05:38:37.601Z,98.38
2022-11-24T05:39:37.606Z,98.38
2022-11-24T05:40:37.585Z,98.18
2022-11-24T05:41:37.590Z,98.28
2022-11-24T05:42:40.847Z,98.38
2022-11-24T05:43:38.560Z,98.59
2022-11-24T05:44:37.561Z,98.59
2022-11-24T05:45:37.534Z,98.38
2022-11-24T05:46:37.599Z,98.59
2022-11-24T05:47:37.499Z,98.49
2022-11-24T05:48:37.523Z,98.18
2022-11-24T05:49:37.533Z,98.18
2022-11-24T05:50:37.473Z,97.97
2022-11-24T05:51:37.463Z,97.82
2022-11-24T05:52:37.460Z,98.03
2022-11-24T05:53:37.458Z,97.66
2022-11-24T05:54:37.429Z,98.13
2022-11-24T05:55:37.446Z,97.52
2022-11-24T05:56:37.408Z,97.62
2022-11-24T05:57:37.394Z,98.13
2022-11-24T05:58:37.405Z,98.03
2022-11-24T05:59:37.370Z,97.92
2022-11-24T06:00:37.389Z,97.82
2022-11-24T06:01:37.513Z,97.66
2022-11-24T06:02:37.540Z,97.52
2022-11-24T06:03:37.355Z,97.41
2022-11-24T06:04:37.589Z,97.41
2022-11-24T06:05:37.311Z,97.82
2022-11-24T06:06:37.306Z,98.03
2022-11-24T06:07:37.421Z,97.82
2022-11-24T06:08:37.279Z,97.82
2022-11-24T06:09:37.266Z,97.62
2022-11-24T06:10:37.267Z,97.52
2022-11-24T06:11:37.264Z,97.92
2022-11-24T06:12:37.290Z,97.72
2022-11-24T06:13:37.271Z,97.92
2022-11-24T06:14:37.218Z,98.29
2022-11-24T06:15:37.196Z,98.13
2022-11-24T06:16:37.228Z,98.03
2022-11-24T06:17:37.176Z,98.03
2022-11-24T06:18:37.283Z,98.24
2022-11-24T06:19:41.722Z,98.13
2022-11-24T06:20:38.143Z,98.85
2022-11-24T06:21:37.142Z,98.54
2022-11-24T06:22:37.146Z,98.44
2022-11-24T06:23:37.126Z,98.75
2022-11-24T06:24:37.256Z,98.44
2022-11-24T06:25:37.128Z,98.54
2022-11-24T06:26:37.097Z,97.82
2022-11-24T06:27:37.085Z,97.92
2022-11-24T06:28:37.059Z,97.92
2022-11-24T06:29:37.053Z,98.33
2022-11-24T06:30:37.043Z,98.24
2022-11-24T06:31:37.100Z,98.13
2022-11-24T06:32:37.045Z,98.33
2022-11-24T06:33:37.008Z,97.92
2022-11-24T06:34:37.253Z,98.33
2022-11-24T06:35:36.977Z,98.54
2022-11-24T06:36:36.983Z,98.75
2022-11-24T06:37:37.021Z,98.75
2022-11-24T06:38:36.953Z,98.65
2022-11-24T06:39:36.939Z,98.44
2022-11-24T06:40:36.949Z,98.33
2022-11-24T06:41:36.958Z,98.44
2022-11-24T06:42:36.936Z,98.96
2022-11-24T06:43:36.936Z,98.75
2022-11-24T06:44:37.061Z,99.26
2022-11-24T06:45:36.976Z,99.05
2022-11-24T06:46:36.918Z,99.16
2022-11-24T06:47:36.873Z,98.85
2022-11-24T06:48:36.965Z,99.16
2022-11-24T06:49:36.847Z,99.21
2022-11-24T06:50:36.833Z,99.21
2022-11-24T06:51:36.848Z,99.37
2022-11-24T06:52:36.823Z,99.41
2022-11-24T06:53:36.801Z,99.31
2022-11-24T06:54:37.010Z,99.82
2022-11-24T06:55:36.950Z,99.99
2022-11-24T06:56:36.830Z,99.82
2022-11-24T06:57:36.744Z,99.93
2022-11-24T06:58:36.747Z,99.99
2022-11-24T06:59:36.721Z,99.93
2022-11-24T07:00:36.724Z,99.99
2022-11-24T07:01:36.845Z,99.62
2022-11-24T07:02:39.812Z,99.82
2022-11-24T07:03:37.683Z,99.72
2022-11-24T07:04:37.018Z,99.93
2022-11-24T07:05:36.669Z,99.99
2022-11-24T07:06:36.732Z,99.93
2022-11-24T07:07:36.690Z,99.99
2022-11-24T07:08:36.646Z,99.99
2022-11-24T07:09:36.618Z,99.99
2022-11-24T07:10:36.613Z,99.99
2022-11-24T07:11:36.589Z,99.99
2022-11-24T07:12:36.597Z,99.99
2022-11-24T07:13:36.567Z,99.99
2022-11-24T07:14:36.811Z,99.99
2022-11-24T07:15:36.562Z,99.99
2022-11-24T07:16:36.572Z,99.82
2022-11-24T07:17:36.530Z,99.99
2022-11-24T07:18:36.517Z,99.99
2022-11-24T07:19:36.547Z,99.99
2022-11-24T07:20:36.550Z,99.99
2022-11-24T07:21:36.493Z,99.99
2022-11-24T07:22:36.490Z,99.99
2022-11-24T07:23:36.486Z,99.99
2022-11-24T07:24:36.817Z,99.99
2022-11-24T07:25:36.462Z,99.99
2022-11-24T07:26:36.451Z,99.99
2022-11-24T07:27:36.433Z,99.99
2022-11-24T07:28:36.433Z,99.99
2022-11-24T07:29:36.384Z,99.99
2022-11-24T07:30:36.398Z,99.99
2022-11-24T07:31:36.482Z,99.99
2022-11-24T07:32:36.393Z,99.99
2022-11-24T07:33:36.350Z,99.99
2022-11-24T07:34:36.796Z,99.99
2022-11-24T07:35:36.324Z,99.99
2022-11-24T07:36:36.322Z,99.99
2022-11-24T07:37:36.302Z,99.99
2022-11-24T07:38:36.304Z,99.99
2022-11-24T07:39:36.318Z,99.77
2022-11-24T07:40:36.334Z,99.62
2022-11-24T07:41:36.292Z,99.51
2022-11-24T07:42:36.247Z,99.31
2022-11-24T07:43:36.227Z,99.10
2022-11-24T07:44:36.568Z,98.90
2022-11-24T07:45:36.250Z,99.10
2022-11-24T07:46:36.222Z,99.10
2022-11-24T07:47:36.222Z,99.21
2022-11-24T07:48:36.200Z,99.21
2022-11-24T07:49:36.166Z,99.21
2022-11-24T07:50:36.164Z,99.10
2022-11-24T07:51:36.167Z,99.10
2022-11-24T07:52:36.139Z,98.79
2022-11-24T07:53:36.124Z,99.00
2022-11-24T07:54:36.489Z,99.00
2022-11-24T07:55:36.120Z,99.10
2022-11-24T07:56:36.114Z,99.21
2022-11-24T07:57:36.079Z,99.10
2022-11-24T07:58:36.104Z,99.21
2022-11-24T07:59:36.067Z,99.31
2022-11-24T08:00:36.090Z,99.10
2022-11-24T08:01:36.167Z,99.41
2022-11-24T08:02:36.038Z,99.21
2022-11-24T08:03:36.186Z,99.21
2022-11-24T08:04:36.373Z,99.10
2022-11-24T08:05:38.454Z,99.10
2022-11-24T08:06:40.923Z,99.10
2022-11-24T08:07:37.043Z,99.10
2022-11-24T08:08:36.049Z,99.10
2022-11-24T08:09:35.954Z,99.10
2022-11-24T08:10:35.963Z,99.00
2022-11-24T08:11:35.995Z,99.00
2022-11-24T08:12:35.930Z,98.90
2022-11-24T08:13:35.975Z,99.31
2022-11-24T08:14:36.314Z,99.10
2022-11-24T08:15:35.892Z,99.10
2022-11-24T08:16:36.034Z,98.79
2022-11-24T08:17:35.885Z,99.10
2022-11-24T08:18:35.907Z,98.79
2022-11-24T08:19:35.869Z,99.21
2022-11-24T08:20:35.834Z,99.21
2022-11-24T08:21:35.818Z,99.10
2022-11-24T08:22:35.815Z,99.31
2022-11-24T08:23:35.872Z,98.75
2022-11-24T08:24:36.186Z,98.54
2022-11-24T08:25:35.778Z,98.50
2022-11-24T08:26:35.792Z,98.50
2022-11-24T08:27:35.758Z,98.19
2022-11-24T08:28:35.759Z,98.29
2022-11-24T08:29:35.744Z,97.88
2022-11-24T08:30:35.726Z,97.73
2022-11-24T08:31:35.880Z,97.48
2022-11-24T08:32:35.705Z,96.77
2022-11-24T08:33:35.710Z,97.17
2022-11-24T08:34:35.904Z,96.25
2022-11-24T08:35:35.682Z,94.92
2022-11-24T08:36:35.689Z,94.30
2022-11-24T08:37:35.640Z,94.71
2022-11-24T08:38:35.635Z,94.10
2022-11-24T08:39:35.661Z,94.30
2022-11-24T08:40:35.614Z,94.36
2022-11-24T08:41:35.649Z,93.95
2022-11-24T08:42:35.624Z,93.95
2022-11-24T08:43:35.584Z,93.90
2022-11-24T08:44:36.084Z,92.88
2022-11-24T08:45:41.232Z,93.55
2022-11-24T08:46:36.618Z,93.35
2022-11-24T08:47:35.581Z,91.91
2022-11-24T08:48:35.523Z,92.02
2022-11-24T08:49:35.517Z,92.28
2022-11-24T08:50:35.501Z,91.36
2022-11-24T08:51:35.549Z,91.52
2022-11-24T08:52:35.485Z,90.39
2022-11-24T08:53:35.490Z,90.81
2022-11-24T08:54:35.685Z,90.56
2022-11-24T08:55:35.448Z,88.92
2022-11-24T08:56:35.439Z,88.10
2022-11-24T08:57:35.441Z,87.18
2022-11-24T08:58:35.549Z,87.49
2022-11-24T08:59:35.451Z,87.65
2022-11-24T09:00:35.438Z,87.45
2022-11-24T09:01:35.562Z,86.83
2022-11-24T09:02:35.389Z,87.10
2022-11-24T09:03:35.376Z,86.18
2022-11-24T09:04:35.699Z,84.95
2022-11-24T09:05:52.450Z,84.75
2022-11-24T09:06:36.340Z,85.57
2022-11-24T09:07:35.429Z,85.63
2022-11-24T09:08:35.324Z,85.22
2022-11-24T09:09:35.305Z,83.69
2022-11-24T09:10:35.294Z,83.59
2022-11-24T09:11:35.365Z,83.89
2022-11-24T09:12:35.275Z,83.93
2022-11-24T09:13:35.250Z,84.99
2022-11-24T09:14:35.678Z,85.71
2022-11-24T09:15:35.226Z,85.67
2022-11-24T09:16:35.334Z,85.20
2022-11-24T09:17:35.241Z,85.20
2022-11-24T09:18:35.204Z,86.02
2022-11-24T09:19:35.540Z,85.44
2022-11-24T09:20:35.179Z,86.26
2022-11-24T09:21:35.247Z,86.98
2022-11-24T09:22:35.152Z,87.84
2022-11-24T09:23:35.140Z,88.31
2022-11-24T09:24:35.139Z,88.20
2022-11-24T09:25:35.115Z,88.31
2022-11-24T09:26:35.129Z,88.62
2022-11-24T09:27:35.117Z,88.24
2022-11-24T09:28:35.101Z,87.32
2022-11-24T09:29:35.583Z,87.02
2022-11-24T09:30:35.184Z,87.08
2022-11-24T09:31:35.291Z,86.98
2022-11-24T09:32:35.051Z,88.10
2022-11-24T09:33:35.068Z,87.53
2022-11-24T09:34:35.037Z,87.02
2022-11-24T09:35:35.022Z,87.32
2022-11-24T09:36:35.000Z,87.73
2022-11-24T09:37:34.987Z,88.35
2022-11-24T09:38:34.980Z,88.35
2022-11-24T09:39:35.290Z,86.20
2022-11-24T09:40:34.973Z,86.30
2022-11-24T09:41:34.981Z,86.51
2022-11-24T09:42:34.955Z,86.10
2022-11-24T09:43:34.925Z,83.64
2022-11-24T09:44:34.944Z,84.97
2022-11-24T09:45:57.522Z,85.93
2022-11-24T09:46:35.945Z,85.17
2022-11-24T09:47:34.881Z,85.38
2022-11-24T09:48:34.874Z,85.79
2022-11-24T09:49:35.287Z,86.61
2022-11-24T09:50:34.874Z,86.71
2022-11-24T09:51:34.835Z,85.99
2022-11-24T09:52:34.826Z,85.89
2022-11-24T09:53:34.854Z,86.10
2022-11-24T09:54:34.799Z,85.03
2022-11-24T09:55:34.794Z,85.64
2022-11-24T09:56:34.779Z,85.34
2022-11-24T09:57:37.431Z,85.85
2022-11-24T09:58:34.788Z,85.71
2022-11-24T09:59:34.908Z,85.81
2022-11-24T10:00:34.734Z,83.91
2022-11-24T10:01:34.974Z,83.60
2022-11-24T10:02:34.731Z,86.32
2022-11-24T10:03:34.745Z,85.50
2022-11-24T10:04:34.783Z,84.79
2022-11-24T10:05:34.702Z,84.69
2022-11-24T10:06:34.693Z,84.58
2022-11-24T10:07:34.688Z,83.87
2022-11-24T10:08:34.647Z,83.83
2022-11-24T10:09:34.893Z,84.24
2022-11-24T10:10:34.622Z,84.85
2022-11-24T10:11:34.618Z,84.34
2022-11-24T10:12:34.624Z,82.87
2022-11-24T10:13:34.604Z,82.36
2022-11-24T10:14:34.598Z,82.83
2022-11-24T10:15:34.618Z,82.18
2022-11-24T10:16:34.592Z,82.39
2022-11-24T10:17:34.558Z,81.37
2022-11-24T10:18:34.557Z,81.73
2022-11-24T10:19:37.795Z,82.04
2022-11-24T10:20:34.512Z,80.10
2022-11-24T10:21:34.527Z,79.86
2022-11-24T10:22:34.499Z,80.30
2022-11-24T10:23:39.468Z,80.10
2022-11-24T10:24:35.493Z,80.96
2022-11-24T10:25:34.463Z,80.10
2022-11-24T10:26:34.450Z,80.20
2022-11-24T10:27:34.455Z,80.51
2022-11-24T10:28:34.423Z,79.73
2022-11-24T10:29:34.721Z,79.93
2022-11-24T10:30:34.407Z,80.41
2022-11-24T10:31:34.502Z,80.61
2022-11-24T10:32:34.384Z,80.41
2022-11-24T10:33:34.415Z,80.00
2022-11-24T10:34:34.400Z,80.00
2022-11-24T10:35:34.373Z,80.00
2022-11-24T10:36:34.346Z,79.49
2022-11-24T10:37:34.344Z,79.45
2022-11-24T10:38:34.339Z,79.28
2022-11-24T10:39:34.694Z,78.88
2022-11-24T10:40:56.939Z,79.69
2022-11-24T10:41:35.287Z,79.28
2022-11-24T10:42:34.277Z,80.07
2022-11-24T10:43:34.286Z,79.80
2022-11-24T10:44:34.255Z,79.69
2022-11-24T10:45:34.293Z,79.49
2022-11-24T10:46:39.170Z,79.59
2022-11-24T10:47:35.224Z,79.59
2022-11-24T10:48:34.206Z,78.67
2022-11-24T10:49:34.570Z,78.81
2022-11-24T10:50:34.207Z,78.98
2022-11-24T10:51:34.224Z,80.20
2022-11-24T10:52:34.178Z,79.93
2022-11-24T10:53:34.157Z,78.57
2022-11-24T10:54:34.160Z,79.43
2022-11-24T10:55:34.136Z,79.63
2022-11-24T10:56:34.118Z,80.20
2022-11-24T10:57:34.140Z,80.10
2022-11-24T10:58:37.714Z,80.41
2022-11-24T10:59:34.461Z,77.79
2022-11-24T11:00:34.086Z,80.00
2022-11-24T11:01:34.125Z,79.90
2022-11-24T11:02:34.149Z,78.81
2022-11-24T11:03:34.065Z,78.41
2022-11-24T11:04:34.038Z,78.81
2022-11-24T11:05:34.053Z,79.83
2022-11-24T11:06:34.033Z,78.50
2022-11-24T11:07:34.041Z,79.63
2022-11-24T11:08:34.016Z,79.77
2022-11-24T11:09:34.314Z,79.87
2022-11-24T11:10:33.970Z,80.04
2022-11-24T11:11:33.984Z,79.43
2022-11-24T11:12:43.747Z,78.91
2022-11-24T11:13:34.952Z,78.23
2022-11-24T11:14:33.933Z,78.85
2022-11-24T11:15:33.944Z,78.75
2022-11-24T11:16:33.903Z,79.87
2022-11-24T11:17:33.934Z,80.07
2022-11-24T11:18:33.880Z,79.25
2022-11-24T11:20:00.400Z,79.46
2022-11-24T11:20:34.857Z,79.77
2022-11-24T11:21:33.852Z,80.28
2022-11-24T11:22:33.854Z,80.48
2022-11-24T11:23:33.873Z,79.57
2022-11-24T11:24:33.835Z,79.77
2022-11-24T11:25:33.809Z,78.13
2022-11-24T11:26:33.822Z,79.05
2022-11-24T11:27:33.832Z,78.23
2022-11-24T11:28:33.771Z,79.16
2022-11-24T11:31:34.972Z,78.85
2022-11-24T11:34:34.708Z,79.77
2022-11-24T11:35:33.702Z,79.50
2022-11-24T11:36:33.685Z,78.54
2022-11-24T11:37:33.773Z,79.16
2022-11-24T11:38:33.727Z,78.85
2022-11-24T11:39:33.689Z,79.57
2022-11-24T11:40:33.667Z,78.75
2022-11-24T11:41:33.641Z,77.93
2022-11-24T11:43:34.614Z,77.72
2022-11-24T11:44:34.159Z,77.42
2022-11-24T11:45:33.686Z,78.13
2022-11-24T11:46:33.706Z,77.52
2022-11-24T11:47:33.596Z,78.34
2022-11-24T11:48:42.386Z,79.05
2022-11-24T11:49:34.586Z,77.38
2022-11-24T11:50:47.349Z,78.91
2022-11-24T11:51:34.753Z,78.61
2022-11-24T11:52:33.518Z,77.48
2022-11-24T11:53:33.514Z,77.38
2022-11-24T11:54:33.775Z,77.48
2022-11-24T11:55:33.478Z,77.69
2022-11-24T11:56:33.473Z,77.69
2022-11-24T11:57:33.464Z,77.79
2022-11-24T11:58:33.447Z,78.75
2022-11-24T11:59:33.514Z,78.34
2022-11-24T12:00:33.464Z,77.31
2022-11-24T12:01:33.412Z,77.72
2022-11-24T12:02:33.547Z,77.72
2022-11-24T12:03:33.576Z,77.52
2022-11-24T12:04:33.712Z,77.52
2022-11-24T12:05:33.406Z,78.03
2022-11-24T12:06:33.359Z,77.83
2022-11-24T12:07:33.434Z,77.72
2022-11-24T12:08:55.933Z,77.52
2022-11-24T12:09:34.693Z,77.52
2022-11-24T12:10:33.352Z,77.22
2022-11-24T12:11:33.345Z,77.31
2022-11-24T12:12:33.293Z,77.62
2022-11-24T12:13:33.316Z,77.62
2022-11-24T12:14:33.346Z,77.42
2022-11-24T12:15:33.286Z,77.62
2022-11-24T12:16:33.318Z,78.34
2022-11-24T12:17:33.242Z,77.72
2022-11-24T12:18:56.400Z,77.83
2022-11-24T12:19:34.486Z,77.42
2022-11-24T12:20:33.200Z,75.58
2022-11-24T12:21:33.202Z,77.52
2022-11-24T12:22:33.203Z,77.52
2022-11-24T12:23:33.167Z,77.22
2022-11-24T12:24:33.182Z,75.78
2022-11-24T12:25:33.151Z,77.79
2022-11-24T12:26:33.151Z,77.52
2022-11-24T12:27:33.139Z,77.31
2022-11-24T12:28:33.151Z,77.42
2022-11-24T12:29:33.599Z,77.93
2022-11-24T12:30:33.086Z,78.03
2022-11-24T12:31:33.146Z,77.62
2022-11-24T12:32:33.066Z,78.03
2022-11-24T12:33:33.083Z,75.99
2022-11-24T12:34:33.042Z,77.59
2022-11-24T12:35:33.080Z,77.42
2022-11-24T12:36:33.023Z,76.90
2022-11-24T12:37:33.030Z,76.36
2022-11-24T12:38:33.002Z,77.69
2022-11-24T12:39:33.448Z,77.59
2022-11-24T12:40:33.010Z,77.18
2022-11-24T12:41:41.654Z,77.48
2022-11-24T12:42:33.979Z,77.48
2022-11-24T12:43:32.952Z,77.31
2022-11-24T12:44:32.940Z,77.59
2022-11-24T12:45:32.931Z,77.59
2022-11-24T12:46:33.010Z,77.48
2022-11-24T12:47:32.931Z,77.38
2022-11-24T12:48:32.901Z,77.48
2022-11-24T12:49:33.403Z,76.26
2022-11-24T12:50:32.872Z,75.99
2022-11-24T12:51:32.863Z,77.48
2022-11-24T12:52:32.872Z,77.48
2022-11-24T12:53:32.880Z,77.28
2022-11-24T12:54:32.826Z,77.38
2022-11-24T12:55:32.820Z,76.70
2022-11-24T12:56:32.812Z,77.31
2022-11-24T12:57:32.805Z,77.48
2022-11-24T12:58:32.818Z,76.81
2022-11-24T12:59:33.199Z,76.40
2022-11-24T13:00:32.805Z,76.81
2022-11-24T13:01:32.894Z,77.42
2022-11-24T13:02:32.875Z,77.52
2022-11-24T13:03:32.724Z,77.52
2022-11-24T13:04:33.102Z,76.70
2022-11-24T13:05:32.742Z,77.42
2022-11-24T13:06:32.724Z,77.62
2022-11-24T13:07:32.785Z,77.72
2022-11-24T13:08:32.702Z,78.44
2022-11-24T13:09:32.684Z,77.52
2022-11-24T13:11:33.692Z,76.50
2022-11-24T13:12:32.625Z,77.52
2022-11-24T13:13:32.629Z,76.60
2022-11-24T13:14:33.201Z,76.81
2022-11-24T13:15:45.595Z,77.11
2022-11-24T13:16:44.361Z,77.62
2022-11-24T13:17:47.575Z,77.62
2022-11-24T13:18:33.640Z,78.64
2022-11-24T13:19:32.580Z,80.18
2022-11-24T13:20:32.538Z,79.16
2022-11-24T13:21:32.585Z,78.44
2022-11-24T13:22:32.524Z,79.16
2022-11-24T13:23:32.508Z,79.46
2022-11-24T13:24:32.882Z,79.29
2022-11-24T13:25:32.489Z,79.50
2022-11-24T13:26:35.298Z,79.09
2022-11-24T13:27:32.530Z,77.86
2022-11-24T13:29:00.326Z,78.88
2022-11-24T13:29:33.462Z,78.27
2022-11-24T13:30:32.472Z,78.88
2022-11-24T13:31:32.466Z,80.21
2022-11-24T13:32:32.412Z,79.60
2022-11-24T13:33:32.437Z,79.60
2022-11-24T13:34:32.794Z,79.70
2022-11-24T13:35:32.438Z,78.88
2022-11-24T13:36:32.387Z,77.97
2022-11-24T13:37:35.871Z,78.07
2022-11-24T13:38:32.344Z,78.07
2022-11-24T13:39:37.352Z,78.07
2022-11-24T13:40:33.341Z,77.66
2022-11-24T13:41:32.497Z,77.45
2022-11-24T13:42:42.897Z,77.86
2022-11-24T13:43:33.306Z,77.97
2022-11-24T13:44:32.462Z,78.07
2022-11-24T13:45:32.309Z,77.97
2022-11-24T13:46:32.352Z,78.17
2022-11-24T13:47:32.253Z,78.38
2022-11-24T13:48:32.253Z,78.17
2022-11-24T13:49:32.227Z,79.50
2022-11-24T13:50:32.221Z,79.80
2022-11-24T13:51:32.233Z,80.01
2022-11-24T13:52:32.234Z,80.11
2022-11-24T13:53:32.189Z,80.21
2022-11-24T13:54:32.448Z,80.73
2022-11-24T13:55:32.181Z,81.17
2022-11-24T13:56:32.303Z,80.76
2022-11-24T13:57:32.150Z,81.38
2022-11-24T13:58:32.139Z,81.99
2022-11-24T13:59:32.116Z,81.38
2022-11-24T14:00:32.130Z,80.76
2022-11-24T14:01:32.489Z,80.76
2022-11-24T14:02:32.149Z,80.66
2022-11-24T14:03:32.084Z,80.87
2022-11-24T14:04:33.284Z,80.15
2022-11-24T14:05:32.054Z,80.76
2022-11-24T14:06:32.068Z,80.46
2022-11-24T14:07:32.054Z,80.42
2022-11-24T14:08:32.019Z,80.56
2022-11-24T14:09:32.016Z,80.32
2022-11-24T14:10:31.997Z,80.15
2022-11-24T14:11:31.983Z,80.73
2022-11-24T14:12:32.034Z,80.35
2022-11-24T14:13:31.957Z,80.32
2022-11-24T14:14:31.945Z,80.73
2022-11-24T14:15:31.937Z,80.21
2022-11-24T14:16:32.060Z,80.35
2022-11-24T14:17:31.932Z,79.60
2022-11-24T14:18:31.939Z,80.87
2022-11-24T14:19:32.349Z,80.15
2022-11-24T14:20:31.886Z,80.56
2022-11-24T14:21:32.019Z,80.56
2022-11-24T14:22:31.921Z,80.66
2022-11-24T14:23:31.857Z,80.56
2022-11-24T14:24:33.478Z,81.07
2022-11-24T14:25:31.867Z,80.66
2022-11-24T14:26:31.896Z,80.76
2022-11-24T14:27:31.837Z,80.97
2022-11-24T14:28:31.894Z,81.07
2022-11-24T14:29:31.831Z,80.87
2022-11-24T14:30:31.795Z,81.17
2022-11-24T14:31:31.845Z,80.66
2022-11-24T14:32:31.774Z,80.76
2022-11-24T14:33:31.842Z,80.60
2022-11-24T14:34:31.910Z,81.27
2022-11-24T14:35:31.888Z,80.87
2022-11-24T14:36:31.764Z,80.87
2022-11-24T14:37:31.697Z,81.38
2022-11-24T14:38:31.699Z,81.58
2022-11-24T14:39:31.693Z,81.68
2022-11-24T14:40:31.671Z,80.80
2022-11-24T14:41:31.651Z,81.38
2022-11-24T14:42:31.647Z,81.41
2022-11-24T14:43:31.645Z,81.10
2022-11-24T14:44:31.631Z,81.31
2022-11-24T14:45:31.603Z,81.10
2022-11-24T14:46:31.746Z,81.62
2022-11-24T14:47:32.681Z,81.82
2022-11-24T14:48:31.608Z,82.03
2022-11-24T14:49:31.564Z,81.72
2022-11-24T14:50:31.653Z,83.25
2022-11-24T14:51:31.659Z,83.60
2022-11-24T14:52:31.553Z,83.50
2022-11-24T14:53:31.536Z,83.60
2022-11-24T14:54:31.572Z,83.09
2022-11-24T14:55:31.553Z,83.64
2022-11-24T14:56:31.530Z,83.09
2022-11-24T14:57:31.476Z,83.84
2022-11-24T14:58:31.490Z,83.95
2022-11-24T14:59:31.528Z,84.25
2022-11-24T15:00:31.641Z,84.05
2022-11-24T15:01:31.554Z,83.54
2022-11-24T15:02:31.516Z,84.15
2022-11-24T15:03:31.447Z,83.74
2022-11-24T15:05:02.098Z,83.33
2022-11-24T15:05:32.392Z,83.47
2022-11-24T15:06:31.582Z,83.68
2022-11-24T15:07:31.411Z,83.88
2022-11-24T15:08:31.366Z,83.98
2022-11-24T15:09:31.348Z,84.91
2022-11-24T15:10:33.804Z,85.83
2022-11-24T15:11:31.321Z,85.01
2022-11-24T15:12:31.388Z,84.80
2022-11-24T15:13:31.310Z,84.29
2022-11-24T15:14:31.512Z,84.29
2022-11-24T15:15:31.312Z,84.19
2022-11-24T15:16:31.371Z,83.78
2022-11-24T15:17:31.272Z,84.23
2022-11-24T15:18:31.270Z,84.19
2022-11-24T15:19:31.260Z,83.88
2022-11-24T15:20:31.229Z,84.09
2022-11-24T15:21:31.279Z,84.33
2022-11-24T15:22:31.308Z,83.98
2022-11-24T15:23:31.214Z,84.19
2022-11-24T15:24:31.238Z,83.78
2022-11-24T15:25:31.182Z,83.58
2022-11-24T15:26:34.219Z,84.29
2022-11-24T15:27:32.156Z,83.37
2022-11-24T15:28:31.189Z,83.98
2022-11-24T15:29:31.133Z,84.09
2022-11-24T15:30:31.159Z,83.82
2022-11-24T15:31:31.220Z,84.33
2022-11-24T15:32:31.140Z,83.92
2022-11-24T15:33:31.087Z,84.44
2022-11-24T15:34:31.098Z,84.06
2022-11-24T15:35:31.097Z,84.12
2022-11-24T15:36:31.091Z,84.23
2022-11-24T15:37:34.143Z,85.15
2022-11-24T15:38:31.085Z,84.95
2022-11-24T15:39:31.049Z,85.36
2022-11-24T15:40:31.015Z,85.71
2022-11-24T15:41:31.070Z,86.22
2022-11-24T15:42:31.008Z,86.42
2022-11-24T15:43:30.996Z,86.42
2022-11-24T15:44:30.985Z,86.36
2022-11-24T15:45:30.954Z,86.46
2022-11-24T15:46:31.038Z,86.66
2022-11-24T15:47:30.959Z,87.08
2022-11-24T15:48:30.936Z,87.43
2022-11-24T15:49:30.958Z,87.22
2022-11-24T15:50:30.904Z,87.22
2022-11-24T15:51:30.920Z,87.32
2022-11-24T15:52:30.973Z,87.94
2022-11-24T15:53:30.896Z,88.59
2022-11-24T15:54:30.898Z,87.98
2022-11-24T15:55:30.844Z,88.49
2022-11-24T15:56:30.875Z,88.53
2022-11-24T15:57:30.887Z,88.59
2022-11-24T15:58:30.830Z,88.74
2022-11-24T15:59:30.920Z,88.18
2022-11-24T16:00:30.822Z,88.53
2022-11-24T16:01:30.886Z,88.43
2022-11-24T16:02:30.871Z,89.56
2022-11-24T16:03:47.883Z,88.53
2022-11-24T16:04:31.802Z,88.84
2022-11-24T16:05:30.737Z,89.70
2022-11-24T16:06:30.753Z,89.36
2022-11-24T16:07:30.800Z,89.36
2022-11-24T16:08:30.734Z,88.53
2022-11-24T16:09:30.692Z,88.43
2022-11-24T16:10:30.695Z,88.23
2022-11-24T16:11:30.719Z,88.53
2022-11-24T16:12:30.685Z,88.02
2022-11-24T16:13:30.690Z,88.53
2022-11-24T16:14:30.732Z,88.74
2022-11-24T16:15:30.671Z,88.64
2022-11-24T16:16:30.657Z,87.92
2022-11-24T16:17:30.673Z,87.92
2022-11-24T16:18:30.624Z,88.12
2022-11-24T16:19:30.621Z,87.61
2022-11-24T16:20:30.569Z,87.82
2022-11-24T16:21:30.581Z,87.82
2022-11-24T16:22:30.554Z,87.40
2022-11-24T16:23:30.538Z,87.51
2022-11-24T16:24:30.627Z,87.30
2022-11-24T16:25:30.538Z,87.51
2022-11-24T16:26:30.524Z,87.51
2022-11-24T16:27:30.506Z,87.30
2022-11-24T16:28:30.534Z,87.40
2022-11-24T16:29:35.354Z,87.61
2022-11-24T16:30:31.504Z,88.06
2022-11-24T16:31:30.508Z,87.82
2022-11-24T16:32:30.524Z,87.85
2022-11-24T16:33:30.462Z,87.65
2022-11-24T16:34:30.432Z,87.75
2022-11-24T16:35:30.459Z,87.75
2022-11-24T16:36:30.429Z,87.65
2022-11-24T16:37:30.413Z,87.75
2022-11-24T16:38:30.396Z,87.34
2022-11-24T16:39:30.360Z,87.55
2022-11-24T16:40:30.421Z,86.58
2022-11-24T16:41:30.349Z,87.40
2022-11-24T16:42:30.350Z,87.20
2022-11-24T16:43:30.346Z,86.83
2022-11-24T16:44:30.360Z,86.62
2022-11-24T16:45:30.406Z,86.68
2022-11-24T16:46:30.453Z,86.58
2022-11-24T16:47:30.274Z,86.58
2022-11-24T16:48:30.326Z,86.68
2022-11-24T16:49:30.254Z,86.68
2022-11-24T16:50:30.284Z,86.79
2022-11-24T16:51:34.738Z,87.61
2022-11-24T16:52:30.252Z,87.45
2022-11-24T16:53:30.231Z,87.51
2022-11-24T16:54:30.206Z,86.58
2022-11-24T16:55:30.262Z,86.62
2022-11-24T16:56:30.222Z,86.21
2022-11-24T16:57:30.201Z,86.48
2022-11-24T16:58:30.180Z,86.72
2022-11-24T16:59:30.152Z,87.55
2022-11-24T17:00:30.154Z,87.24
2022-11-24T17:01:30.236Z,87.34
2022-11-24T17:02:30.206Z,87.45
2022-11-24T17:03:30.126Z,86.93
2022-11-24T17:04:30.107Z,86.62
2022-11-24T17:05:30.097Z,87.34
2022-11-24T17:06:30.088Z,87.34
2022-11-24T17:07:30.187Z,87.34
2022-11-24T17:08:30.071Z,86.62
2022-11-24T17:09:30.040Z,86.72
2022-11-24T17:10:30.030Z,86.52
2022-11-24T17:11:30.043Z,86.58
2022-11-24T17:12:30.023Z,86.52
2022-11-24T17:13:30.009Z,87.45
2022-11-24T17:14:30.006Z,87.55
2022-11-24T17:15:34.532Z,87.45
2022-11-24T17:16:31.050Z,87.30
2022-11-24T17:17:29.955Z,87.45
2022-11-24T17:18:30.017Z,87.61
2022-11-24T17:19:30.098Z,87.71
2022-11-24T17:20:29.986Z,87.51
2022-11-24T17:21:29.958Z,87.34
2022-11-24T17:22:29.903Z,87.61
2022-11-24T17:23:29.900Z,87.75
2022-11-24T17:24:29.883Z,87.34
2022-11-24T17:25:29.885Z,87.51
2022-11-24T17:26:29.860Z,87.55
2022-11-24T17:27:29.913Z,87.45
2022-11-24T17:28:29.836Z,87.34
2022-11-24T17:29:29.860Z,87.40
2022-11-24T17:30:29.829Z,87.85
2022-11-24T17:31:29.950Z,88.06
2022-11-24T17:32:29.793Z,88.06
2022-11-24T17:33:29.777Z,88.43
2022-11-24T17:34:29.789Z,88.17
2022-11-24T17:35:29.896Z,87.75
2022-11-24T17:36:29.845Z,88.47
2022-11-24T17:37:29.736Z,88.27
2022-11-24T17:38:29.735Z,88.27
2022-11-24T17:39:29.827Z,87.75
2022-11-24T17:40:29.868Z,87.96
2022-11-24T17:41:29.689Z,88.27
2022-11-24T17:42:29.685Z,88.17
2022-11-24T17:43:29.695Z,88.06
2022-11-24T17:44:29.682Z,88.06
2022-11-24T17:45:29.862Z,88.06
2022-11-24T17:46:29.655Z,88.27
2022-11-24T17:47:29.682Z,87.85
2022-11-24T17:48:29.645Z,87.85
2022-11-24T17:49:29.643Z,88.47
2022-11-24T17:50:29.600Z,88.57
2022-11-24T17:51:29.589Z,88.37
2022-11-24T17:52:29.566Z,88.57
2022-11-24T17:53:29.603Z,88.72
2022-11-24T17:54:46.027Z,88.47
2022-11-24T17:55:30.551Z,88.47
2022-11-24T17:56:29.544Z,88.37
2022-11-24T17:57:29.524Z,88.62
2022-11-24T17:58:29.534Z,88.51
2022-11-24T17:59:29.499Z,88.41
2022-11-24T18:00:29.480Z,88.78
2022-11-24T18:01:29.524Z,88.47
2022-11-24T18:02:29.604Z,88.31
2022-11-24T18:03:29.450Z,88.92
2022-11-24T18:04:29.453Z,89.40
2022-11-24T18:05:29.436Z,89.54
2022-11-24T18:06:29.460Z,89.34
2022-11-24T18:07:29.459Z,89.29
2022-11-24T18:08:29.399Z,89.95
2022-11-24T18:09:29.440Z,89.91
2022-11-24T18:10:29.397Z,89.13
2022-11-24T18:11:31.756Z,88.82
2022-11-24T18:12:29.353Z,89.54
2022-11-24T18:13:55.248Z,88.82
2022-11-24T18:14:30.345Z,88.82
2022-11-24T18:15:29.365Z,88.51
2022-11-24T18:16:29.351Z,89.54
2022-11-24T18:17:29.324Z,88.92
2022-11-24T18:18:29.302Z,88.82
2022-11-24T18:19:29.288Z,88.92
2022-11-24T18:20:29.269Z,89.44
2022-11-24T18:21:29.256Z,89.54
2022-11-24T18:22:58.007Z,89.64
2022-11-24T18:23:30.270Z,89.58
2022-11-24T18:24:29.219Z,89.23
2022-11-24T18:25:29.206Z,89.85
2022-11-24T18:26:29.291Z,89.79
2022-11-24T18:27:29.196Z,89.85
2022-11-24T18:28:29.203Z,90.30